Portada
METAR-TAF:

METAR-TAF

Aeropuertos :

Yasuj, Irán

latitud: 30-41-49N, longitud: 051-33E, altitud: 1825 m

Observación

El informe se hizo hace 1 hora y 3 minutos, a las 22:00 UTC
Viento calma
Temperatura 17°C
Humedad 34%
Presión 1021 hPa
Visibilidad 10 km o más
sin nubes por debajo de 1500 m y sin presencia de cumulonimbus.

METAR: OISY 282200Z 00000KT CAVOK 17/01 Q1021

Hora: 03:33 (23:03 UTC)


TAF: falta

Observaciones y pronósticos meteorológicos de más de 4000 aeropuertos (mensajes METAR y TAF).

Los puntos amarillos y rojos representan las estaciones disponibles.

Ponga el ratón en el punto deseado para ver el nombre de la estación.

Haga clic para ver las observaciones y los pronósticos meteorológicos.

Para cambiar el mapa : haga clic en los botones verdes con una cruz de color negro para hacer un zoom, en el botón verde con un guión para alejar o en las flechas verdes para mapas adyacentes.


METAR-TAF: